Time,TemperatureF,DewpointF,PressureIn,WindDirection,WindDirectionDegrees,WindSpeedMPH,WindSpeedGustMPH,Humidity,HourlyPrecipIn,Conditions,Clouds,dailyrainin,SolarRadiationWatts/m^2,SoftwareType,DateUTC
2013-03-02 00:00:00,51.0,41.9,29.82,NE,36,5.0,10.0,71,0.00,,,0.00,0.0,WeatherDisplay:10.37,2013-03-01 23:00:00,
2013-03-02 00:10:00,50.9,41.8,29.82,NE,41,7.0,9.0,71,0.00,,,0.00,0.0,WeatherDisplay:10.37,2013-03-01 23:10:00,
2013-03-02 00:15:00,50.9,42.2,29.82,NE,40,6.0,10.0,72,0.00,,,0.00,0.0,WeatherDisplay:10.37,2013-03-01 23:15:00,
2013-03-02 00:20:00,50.9,42.2,29.82,NNE,30,7.0,9.0,72,0.00,,,0.00,0.0,WeatherDisplay:10.37,2013-03-01 23:20:00,
2013-03-02 00:25:00,51.0,42.3,29.82,NNE,28,6.0,9.0,72,0.00,,,0.00,0.0,WeatherDisplay:10.37,2013-03-01 23:25:00,
2013-03-02 00:30:00,51.0,42.3,29.82,NNE,30,5.0,8.0,72,0.00,,,0.00,0.0,WeatherDisplay:10.37,2013-03-01 23:30:00,
2013-03-02 00:35:00,51.0,42.3,29.82,NE,40,7.0,8.0,72,0.00,,,0.00,0.0,WeatherDisplay:10.37,2013-03-01 23:35:00,
2013-03-02 00:40:00,51.0,42.3,29.82,NE,49,6.0,9.0,72,0.00,,,0.00,0.0,WeatherDisplay:10.37,2013-03-01 23:40:00,
2013-03-02 00:45:00,51.0,42.3,29.82,NE,48,5.0,9.0,72,0.00,,,0.00,0.0,WeatherDisplay:10.37,2013-03-01 23:45:00,
2013-03-02 00:50:00,51.0,42.3,29.82,NE,50,3.0,8.0,72,0.00,,,0.00,0.0,WeatherDisplay:10.37,2013-03-01 23:50:00,
2013-03-02 00:55:00,51.0,42.3,29.82,NE,49,3.0,7.0,72,0.00,,,0.00,0.0,WeatherDisplay:10.37,2013-03-01 23:55:00,
2013-03-02 01:00:00,51.0,42.3,29.82,NE,46,3.0,6.0,72,0.00,,,0.00,0.0,WeatherDisplay:10.37,2013-03-02 00:00:00,
2013-03-02 01:05:00,51.0,42.3,29.82,NE,42,6.0,9.0,72,0.00,,,0.00,0.0,WeatherDisplay:10.37,2013-03-02 00:05:00,
2013-03-02 01:10:00,51.1,42.4,29.82,NE,44,7.0,12.0,72,0.00,,,0.00,0.0,WeatherDisplay:10.37,2013-03-02 00:10:00,
2013-03-02 01:15:00,51.1,42.4,29.81,NE,35,6.0,12.0,72,0.00,,,0.00,0.0,WeatherDisplay:10.37,2013-03-02 00:15:00,
2013-03-02 01:20:00,51.1,42.4,29.81,NNE,29,5.0,8.0,72,0.00,,,0.00,0.0,WeatherDisplay:10.37,2013-03-02 00:20:00,
2013-03-02 01:25:00,51.0,42.3,29.81,NE,36,6.0,10.0,72,0.00,,,0.00,0.0,WeatherDisplay:10.37,2013-03-02 00:25:00,
2013-03-02 01:30:00,51.0,42.3,29.81,NE,42,6.0,8.0,72,0.00,,,0.00,0.0,WeatherDisplay:10.37,2013-03-02 00:30:00,
2013-03-02 01:35:00,50.9,42.6,29.81,NE,39,5.0,8.0,73,0.00,,,0.00,0.0,WeatherDisplay:10.37,2013-03-02 00:35:00,
2013-03-02 01:40:00,50.9,42.6,29.81,NNE,31,5.0,9.0,73,0.00,,,0.00,0.0,WeatherDisplay:10.37,2013-03-02 00:40:00,
2013-03-02 01:45:00,50.9,42.6,29.80,NNE,23,5.0,9.0,73,0.00,,,0.00,0.0,WeatherDisplay:10.37,2013-03-02 00:45:00,
2013-03-02 01:50:00,50.9,42.6,29.80,NNE,16,5.0,8.0,73,0.00,,,0.00,0.0,WeatherDisplay:10.37,2013-03-02 00:50:00,
2013-03-02 01:55:00,50.9,42.5,29.80,NNE,22,3.0,7.0,73,0.00,,,0.00,0.0,WeatherDisplay:10.37,2013-03-02 00:55:00,
2013-03-02 02:00:00,50.8,42.5,29.80,NNE,24,3.0,8.0,73,0.00,,,0.00,0.0,WeatherDisplay:10.37,2013-03-02 01:00:00,
2013-03-02 02:05:00,50.9,42.6,29.80,NNE,13,6.0,8.0,73,0.00,,,0.00,0.0,WeatherDisplay:10.37,2013-03-02 01:05:00,
2013-03-02 02:10:00,50.9,42.6,29.79,North,11,5.0,8.0,73,0.00,,,0.00,0.0,WeatherDisplay:10.37,2013-03-02 01:10:00,
2013-03-02 02:15:00,51.0,42.6,29.79,NNE,14,6.0,9.0,73,0.00,,,0.00,0.0,WeatherDisplay:10.37,2013-03-02 01:15:00,
2013-03-02 02:20:00,51.1,42.7,29.79,NNE,14,7.0,9.0,73,0.00,,,0.00,0.0,WeatherDisplay:10.37,2013-03-02 01:20:00,
2013-03-02 02:25:00,51.1,42.7,29.79,NNE,16,5.0,9.0,73,0.00,,,0.00,0.0,WeatherDisplay:10.37,2013-03-02 01:25:00,
2013-03-02 02:30:00,51.1,42.7,29.79,NNE,15,3.0,8.0,73,0.00,,,0.00,0.0,WeatherDisplay:10.37,2013-03-02 01:30:00,
2013-03-02 02:35:00,51.0,42.6,29.78,NNE,12,1.0,6.0,73,0.00,,,0.00,0.0,WeatherDisplay:10.37,2013-03-02 01:35:00,
2013-03-02 02:40:00,51.0,42.6,29.78,NNE,16,5.0,9.0,73,0.00,,,0.00,0.0,WeatherDisplay:10.37,2013-03-02 01:40:00,
2013-03-02 02:45:00,51.0,42.6,29.78,NNE,19,5.0,9.0,73,0.00,,,0.00,0.0,WeatherDisplay:10.37,2013-03-02 01:45:00,
2013-03-02 02:50:00,51.0,42.6,29.78,NNE,15,7.0,12.0,73,0.00,,,0.00,0.0,WeatherDisplay:10.37,2013-03-02 01:50:00,
2013-03-02 02:55:00,50.9,42.6,29.77,NNE,17,7.0,12.0,73,0.00,,,0.00,0.0,WeatherDisplay:10.37,2013-03-02 01:55:00,
2013-03-02 03:00:00,50.9,42.6,29.78,NNE,23,3.0,10.0,73,0.00,,,0.00,0.0,WeatherDisplay:10.37,2013-03-02 02:00:00,
2013-03-02 03:05:00,50.9,42.6,29.78,NE,39,1.0,8.0,73,0.00,,,0.00,0.0,WeatherDisplay:10.37,2013-03-02 02:05:00,
2013-03-02 03:10:00,50.9,42.5,29.78,NE,36,1.0,6.0,73,0.00,,,0.00,0.0,WeatherDisplay:10.37,2013-03-02 02:10:00,
2013-03-02 03:15:00,50.8,42.8,29.78,NE,39,0.0,6.0,74,0.00,,,0.00,0.0,WeatherDisplay:10.37,2013-03-02 02:15:00,
2013-03-02 03:20:00,50.7,42.7,29.78,East,98,0.0,1.0,74,0.00,,,0.00,0.0,WeatherDisplay:10.37,2013-03-02 02:20:00,
2013-03-02 03:25:00,50.6,42.6,29.78,ESE,109,0.0,0.0,74,0.00,,,0.00,0.0,WeatherDisplay:10.37,2013-03-02 02:25:00,
2013-03-02 03:30:00,50.6,42.6,29.78,ESE,109,0.0,0.0,74,0.00,,,0.00,0.0,WeatherDisplay:10.37,2013-03-02 02:30:00,
2013-03-02 03:35:00,50.6,42.6,29.78,ESE,109,1.0,2.0,74,0.00,,,0.00,0.0,WeatherDisplay:10.37,2013-03-02 02:35:00,
2013-03-02 03:40:00,50.5,42.5,29.78,East,84,2.0,5.0,74,0.00,,,0.00,0.0,WeatherDisplay:10.37,2013-03-02 02:40:00,
2013-03-02 03:45:00,50.4,42.8,29.78,ENE,65,2.0,5.0,75,0.00,,,0.00,0.0,WeatherDisplay:10.37,2013-03-02 02:45:00,
2013-03-02 03:50:00,50.2,42.6,29.78,NE,52,5.0,7.0,75,0.00,,,0.00,0.0,WeatherDisplay:10.37,2013-03-02 02:50:00,
2013-03-02 03:55:00,50.1,42.5,29.77,NE,41,5.0,7.0,75,0.00,,,0.00,0.0,WeatherDisplay:10.37,2013-03-02 02:55:00,
2013-03-02 04:05:00,50.3,43.0,29.77,NE,37,6.0,8.0,76,0.00,,,0.00,0.0,WeatherDisplay:10.37,2013-03-02 03:05:00,
2013-03-02 04:15:00,50.3,43.0,29.77,NNE,15,6.0,7.0,76,0.00,,,0.00,0.0,WeatherDisplay:10.37,2013-03-02 03:15:00,
2013-03-02 04:25:00,50.3,43.4,29.77,NNE,18,9.0,14.0,77,0.00,,,0.00,0.0,WeatherDisplay:10.37,2013-03-02 03:25:00,
2013-03-02 04:30:00,50.3,43.4,29.76,NNE,14,6.0,13.0,77,0.00,,,0.00,0.0,WeatherDisplay:10.37,2013-03-02 03:30:00,
2013-03-02 04:35:00,50.2,43.6,29.77,NNE,13,5.0,9.0,78,0.00,,,0.00,0.0,WeatherDisplay:10.37,2013-03-02 03:35:00,
2013-03-02 04:40:00,50.1,43.8,29.78,NE,37,1.0,5.0,79,0.00,,,0.00,0.0,WeatherDisplay:10.37,2013-03-02 03:40:00,
2013-03-02 04:45:00,49.7,43.8,29.78,ESE,108,2.0,6.0,80,0.00,,,0.00,0.0,WeatherDisplay:10.37,2013-03-02 03:45:00,
2013-03-02 04:50:00,49.4,43.8,29.77,ESE,114,3.0,5.0,81,0.00,,,0.00,0.0,WeatherDisplay:10.37,2013-03-02 03:50:00,
2013-03-02 04:55:00,49.3,43.7,29.78,NE,55,2.0,5.0,81,0.00,,,0.00,0.0,WeatherDisplay:10.37,2013-03-02 03:55:00,
2013-03-02 05:00:00,49.5,43.9,29.78,NE,46,2.0,5.0,81,0.00,,,0.00,0.0,WeatherDisplay:10.37,2013-03-02 04:00:00,
2013-03-02 05:10:00,49.3,43.7,29.77,NE,40,5.0,7.0,81,0.00,,,0.00,0.0,WeatherDisplay:10.37,2013-03-02 04:10:00,
2013-03-02 05:15:00,49.4,43.8,29.76,NNE,24,2.0,8.0,81,0.00,-DZ,,0.00,0.0,WeatherDisplay:10.37,2013-03-02 04:15:00,
2013-03-02 05:20:00,49.5,43.9,29.77,NNE,21,3.0,9.0,81,0.00,-DZ,,0.00,0.0,WeatherDisplay:10.37,2013-03-02 04:20:00,
2013-03-02 05:30:00,49.5,43.6,29.77,NE,56,5.0,8.0,80,0.00,-DZ,,0.00,0.0,WeatherDisplay:10.37,2013-03-02 04:30:00,
2013-03-02 05:40:00,49.7,43.8,29.77,NE,50,5.0,7.0,80,0.00,-DZ,,0.00,0.0,WeatherDisplay:10.37,2013-03-02 04:40:00,
2013-03-02 05:50:00,49.9,43.6,29.77,NE,36,5.0,8.0,79,0.00,-DZ,,0.00,0.0,WeatherDisplay:10.37,2013-03-02 04:50:00,
2013-03-02 05:55:00,50.1,43.5,29.77,NNE,32,7.0,10.0,78,0.00,-DZ,,0.00,0.0,WeatherDisplay:10.37,2013-03-02 04:55:00,
2013-03-02 06:00:00,50.3,43.7,29.77,NE,37,9.0,12.0,78,0.00,-DZ,,0.00,0.0,WeatherDisplay:10.37,2013-03-02 05:00:00,
2013-03-02 06:05:00,50.1,43.5,29.77,NE,40,6.0,10.0,78,0.00,OVC,,0.00,0.0,WeatherDisplay:10.37,2013-03-02 05:05:00,
2013-03-02 06:15:00,50.3,43.4,29.77,NNE,30,7.0,12.0,77,0.00,OVC,,0.00,0.0,WeatherDisplay:10.37,2013-03-02 05:15:00,
2013-03-02 06:20:00,50.3,43.4,29.77,NNE,25,6.0,10.0,77,0.00,OVC,,0.00,0.0,WeatherDisplay:10.37,2013-03-02 05:20:00,
2013-03-02 06:25:00,50.2,43.6,29.77,NNE,21,7.0,12.0,78,0.00,OVC,,0.00,0.0,WeatherDisplay:10.37,2013-03-02 05:25:00,
2013-03-02 06:30:00,50.1,43.5,29.77,NNE,19,5.0,10.0,78,0.00,OVC,,0.00,0.0,WeatherDisplay:10.37,2013-03-02 05:30:00,
2013-03-02 06:35:00,50.0,43.7,29.77,NNE,16,7.0,9.0,79,0.00,OVC,,0.00,0.0,WeatherDisplay:10.37,2013-03-02 05:35:00,
2013-03-02 06:40:00,49.9,43.6,29.77,NNE,18,7.0,12.0,79,0.00,OVC,,0.00,0.0,WeatherDisplay:10.37,2013-03-02 05:40:00,
2013-03-02 06:45:00,50.0,43.7,29.77,NNE,21,6.0,10.0,79,0.00,OVC,,0.00,0.0,WeatherDisplay:10.37,2013-03-02 05:45:00,
2013-03-02 06:55:00,50.2,43.6,29.77,NNE,13,6.0,12.0,78,0.00,OVC,,0.00,5.0,WeatherDisplay:10.37,2013-03-02 05:55:00,
2013-03-02 07:00:00,50.4,43.8,29.77,NNE,20,7.0,13.0,78,0.00,OVC,,0.00,9.0,WeatherDisplay:10.37,2013-03-02 06:00:00,
2013-03-02 07:05:00,50.5,43.5,29.77,NNE,24,6.0,10.0,77,0.00,BKN,,0.00,12.0,WeatherDisplay:10.37,2013-03-02 06:05:00,
2013-03-02 07:10:00,50.6,43.7,29.77,NNE,23,8.0,13.0,77,0.00,BKN,,0.00,18.0,WeatherDisplay:10.37,2013-03-02 06:10:00,
2013-03-02 07:15:00,50.7,43.4,29.77,NNE,26,9.0,12.0,76,0.00,BKN,,0.00,21.0,WeatherDisplay:10.37,2013-03-02 06:15:00,
2013-03-02 07:20:00,50.7,43.4,29.78,NE,38,8.0,12.0,76,0.00,BKN,,0.00,25.0,WeatherDisplay:10.37,2013-03-02 06:20:00,
2013-03-02 07:25:00,50.6,43.3,29.78,NE,44,9.0,12.0,76,0.00,BKN,,0.00,25.0,WeatherDisplay:10.37,2013-03-02 06:25:00,
2013-03-02 07:30:00,50.8,43.1,29.78,NE,38,7.0,12.0,75,0.00,BKN,,0.00,28.0,WeatherDisplay:10.37,2013-03-02 06:30:00,
2013-03-02 07:35:00,50.9,43.3,29.78,NE,35,7.0,12.0,75,0.00,BKN,,0.00,33.0,WeatherDisplay:10.37,2013-03-02 06:35:00,
2013-03-02 07:40:00,51.0,43.4,29.78,NNE,31,6.0,10.0,75,0.00,BKN,,0.00,35.0,WeatherDisplay:10.37,2013-03-02 06:40:00,
2013-03-02 07:45:00,51.3,43.3,29.78,NNE,29,6.0,10.0,74,0.00,BKN,,0.00,33.0,WeatherDisplay:10.37,2013-03-02 06:45:00,
2013-03-02 07:50:00,51.5,43.5,29.78,NNE,27,6.0,10.0,74,0.00,BKN,,0.00,37.0,WeatherDisplay:10.37,2013-03-02 06:50:00,
2013-03-02 07:55:00,51.5,43.1,29.78,NNE,22,6.0,12.0,73,0.00,BKN,,0.00,39.0,WeatherDisplay:10.37,2013-03-02 06:55:00,
2013-03-02 08:00:00,51.5,43.2,29.78,NNE,17,3.0,9.0,73,0.00,BKN,,0.00,40.0,WeatherDisplay:10.37,2013-03-02 07:00:00,
2013-03-02 08:05:00,51.5,43.5,29.78,NNE,19,5.0,8.0,74,0.00,BKN,,0.00,44.0,WeatherDisplay:10.37,2013-03-02 07:05:00,
2013-03-02 08:10:00,51.5,43.2,29.78,NE,35,7.0,10.0,73,0.00,BKN,,0.00,47.0,WeatherDisplay:10.37,2013-03-02 07:10:00,
2013-03-02 08:15:00,51.8,43.4,29.78,NE,39,3.0,10.0,73,0.00,BKN,,0.00,54.0,WeatherDisplay:10.37,2013-03-02 07:15:00,
2013-03-02 08:20:00,52.1,43.3,29.78,NE,36,9.0,13.0,72,0.00,BKN,,0.00,62.0,WeatherDisplay:10.37,2013-03-02 07:20:00,
2013-03-02 08:30:00,52.8,42.9,29.79,NE,42,6.0,13.0,69,0.00,BKN,,0.00,72.0,WeatherDisplay:10.37,2013-03-02 07:30:00,
2013-03-02 08:35:00,52.8,42.9,29.79,NNE,32,5.0,12.0,69,0.00,BKN,,0.00,77.0,WeatherDisplay:10.37,2013-03-02 07:35:00,
2013-03-02 08:40:00,52.7,43.2,29.79,NNE,28,7.0,12.0,70,0.00,BKN,,0.00,88.0,WeatherDisplay:10.37,2013-03-02 07:40:00,
2013-03-02 08:45:00,52.7,43.2,29.79,NNE,23,7.0,10.0,70,0.00,BKN,,0.00,93.0,WeatherDisplay:10.37,2013-03-02 07:45:00,
2013-03-02 08:50:00,52.7,43.2,29.79,NNE,17,6.0,14.0,70,0.00,BKN,,0.00,86.0,WeatherDisplay:10.37,2013-03-02 07:50:00,
2013-03-02 08:55:00,52.8,43.3,29.79,NNE,25,6.0,12.0,70,0.00,BKN,,0.00,77.0,WeatherDisplay:10.37,2013-03-02 07:55:00,
2013-03-02 09:00:00,52.9,43.4,29.79,NNE,29,5.0,12.0,70,0.00,BKN,,0.00,72.0,WeatherDisplay:10.37,2013-03-02 08:00:00,
2013-03-02 09:05:00,52.9,43.7,29.79,NNE,25,2.0,7.0,71,0.00,BKN,,0.00,79.0,WeatherDisplay:10.37,2013-03-02 08:05:00,
2013-03-02 09:10:00,52.9,43.7,29.79,NNE,17,2.0,5.0,71,0.00,BKN,,0.00,91.0,WeatherDisplay:10.37,2013-03-02 08:10:00,
2013-03-02 09:15:00,52.9,44.1,29.79,NNE,13,1.0,5.0,72,0.00,-DZ,,0.00,97.0,WeatherDisplay:10.37,2013-03-02 08:15:00,
2013-03-02 09:20:00,52.9,44.1,29.79,NNE,23,1.0,6.0,72,0.00,-DZ,,0.00,109.0,WeatherDisplay:10.37,2013-03-02 08:20:00,
2013-03-02 09:30:00,53.2,44.4,29.80,NNE,22,0.0,5.0,72,0.00,-DZ,,0.00,144.0,WeatherDisplay:10.37,2013-03-02 08:30:00,
2013-03-02 09:35:00,53.3,44.5,29.80,NNE,28,1.0,5.0,72,0.00,-DZ,,0.00,151.0,WeatherDisplay:10.37,2013-03-02 08:35:00,
2013-03-02 09:40:00,53.5,45.1,29.80,NE,44,1.0,7.0,73,0.00,-DZ,,0.00,149.0,WeatherDisplay:10.37,2013-03-02 08:40:00,
2013-03-02 09:45:00,53.6,44.8,29.80,NE,35,1.0,7.0,72,0.00,BKN,,0.00,155.0,WeatherDisplay:10.37,2013-03-02 08:45:00,
2013-03-02 09:50:00,53.7,44.9,29.80,NNE,29,1.0,6.0,72,0.00,BKN,,0.00,153.0,WeatherDisplay:10.37,2013-03-02 08:50:00,
2013-03-02 09:55:00,53.9,45.1,29.80,NNE,30,5.0,8.0,72,0.00,BKN,,0.00,135.0,WeatherDisplay:10.37,2013-03-02 08:55:00,
2013-03-02 10:00:00,54.1,45.3,29.80,NNE,20,6.0,12.0,72,0.00,BKN,,0.00,127.0,WeatherDisplay:10.37,2013-03-02 09:00:00,
2013-03-02 10:05:00,54.4,44.8,29.80,NNE,14,3.0,12.0,70,0.00,BKN,,0.00,130.0,WeatherDisplay:10.37,2013-03-02 09:05:00,
2013-03-02 10:10:00,54.7,44.7,29.80,NNE,22,8.0,13.0,69,0.00,BKN,,0.00,111.0,WeatherDisplay:10.37,2013-03-02 09:10:00,
2013-03-02 10:15:00,55.0,44.6,29.80,NNE,22,6.0,14.0,68,0.00,BKN,,0.00,98.0,WeatherDisplay:10.37,2013-03-02 09:15:00,
2013-03-02 10:20:00,55.0,44.6,29.81,NNE,22,8.0,13.0,68,0.00,BKN,,0.00,98.0,WeatherDisplay:10.37,2013-03-02 09:20:00,
2013-03-02 10:25:00,55.0,44.6,29.81,NNE,25,7.0,10.0,68,0.00,BKN,,0.00,120.0,WeatherDisplay:10.37,2013-03-02 09:25:00,
2013-03-02 10:30:00,55.1,44.3,29.81,NNE,21,6.0,16.0,67,0.00,BKN,,0.00,199.0,WeatherDisplay:10.37,2013-03-02 09:30:00,
2013-03-02 10:35:00,55.2,44.4,29.81,NNE,14,5.0,14.0,67,0.00,BKN,,0.00,239.0,WeatherDisplay:10.37,2013-03-02 09:35:00,
2013-03-02 10:40:00,55.3,44.9,29.81,North,9,6.0,14.0,68,0.00,BKN,,0.00,257.0,WeatherDisplay:10.37,2013-03-02 09:40:00,
2013-03-02 10:45:00,55.4,45.0,29.81,North,8,6.0,13.0,68,0.00,FEW,,0.00,262.0,WeatherDisplay:10.37,2013-03-02 09:45:00,
2013-03-02 10:50:00,55.5,45.1,29.81,NNE,14,7.0,13.0,68,0.00,FEW,,0.00,306.0,WeatherDisplay:10.37,2013-03-02 09:50:00,
2013-03-02 10:55:00,55.6,45.2,29.81,NNE,16,8.0,16.0,68,0.00,FEW,,0.00,338.0,WeatherDisplay:10.37,2013-03-02 09:55:00,
2013-03-02 11:00:00,55.8,45.4,29.81,North,7,7.0,15.0,68,0.00,FEW,,0.00,353.0,WeatherDisplay:10.37,2013-03-02 10:00:00,
2013-03-02 11:05:00,56.1,45.3,29.81,North,6,9.0,17.0,67,0.00,FEW,,0.00,345.0,WeatherDisplay:10.37,2013-03-02 10:05:00,
2013-03-02 11:10:00,56.3,45.1,29.81,North,5,8.0,15.0,66,0.00,FEW,,0.00,385.0,WeatherDisplay:10.37,2013-03-02 10:10:00,
2013-03-02 11:20:00,56.8,44.8,29.81,NNE,13,9.0,16.0,64,0.00,SCT,,0.00,294.0,WeatherDisplay:10.37,2013-03-02 10:20:00,
2013-03-02 11:25:00,57.1,44.7,29.81,NNE,13,9.0,18.0,63,0.00,BKN,,0.00,255.0,WeatherDisplay:10.37,2013-03-02 10:25:00,
2013-03-02 11:30:00,57.3,44.0,29.81,North,11,12.0,20.0,61,0.00,BKN,,0.00,244.0,WeatherDisplay:10.37,2013-03-02 10:30:00,
2013-03-02 11:40:00,57.9,44.5,29.81,NNE,12,5.0,14.0,61,0.00,BKN,,0.00,287.0,WeatherDisplay:10.37,2013-03-02 10:40:00,
2013-03-02 11:50:00,58.4,43.7,29.81,NNE,28,9.0,17.0,58,0.00,FEW,,0.00,434.0,WeatherDisplay:10.37,2013-03-02 10:50:00,
2013-03-02 11:55:00,58.8,43.6,29.81,NNE,23,7.0,15.0,57,0.00,FEW,,0.00,330.0,WeatherDisplay:10.37,2013-03-02 10:55:00,
2013-03-02 12:00:00,59.0,42.8,29.81,NNE,24,12.0,16.0,55,0.00,FEW,,0.00,357.0,WeatherDisplay:10.37,2013-03-02 11:00:00,
2013-03-02 12:05:00,59.3,43.2,29.81,NNE,29,8.0,15.0,55,0.00,FEW,,0.00,380.0,WeatherDisplay:10.37,2013-03-02 11:05:00,
2013-03-02 12:10:00,59.8,43.1,29.81,NNE,26,10.0,16.0,54,0.00,FEW,,0.00,397.0,WeatherDisplay:10.37,2013-03-02 11:10:00,
2013-03-02 12:15:00,59.7,43.0,29.81,NNE,17,9.0,20.0,54,0.00,FEW,,0.00,353.0,WeatherDisplay:10.37,2013-03-02 11:15:00,
2013-03-02 12:20:00,59.8,42.6,29.81,North,10,7.0,20.0,53,0.00,FEW,,0.00,334.0,WeatherDisplay:10.37,2013-03-02 11:20:00,
2013-03-02 12:25:00,59.7,41.5,29.81,NNE,12,12.0,20.0,51,0.00,FEW,,0.00,309.0,WeatherDisplay:10.37,2013-03-02 11:25:00,
2013-03-02 12:30:00,59.8,42.1,29.81,North,9,8.0,18.0,52,0.00,FEW,,0.00,304.0,WeatherDisplay:10.37,2013-03-02 11:30:00,
2013-03-02 12:35:00,59.8,41.6,29.81,North,8,8.0,15.0,51,0.00,FEW,,0.00,292.0,WeatherDisplay:10.37,2013-03-02 11:35:00,
2013-03-02 12:40:00,59.8,42.1,29.81,NNE,17,8.0,15.0,52,0.00,FEW,,0.00,294.0,WeatherDisplay:10.37,2013-03-02 11:40:00,
2013-03-02 12:45:00,59.8,41.6,29.81,NNE,31,10.0,18.0,51,0.00,FEW,,0.00,287.0,WeatherDisplay:10.37,2013-03-02 11:45:00,
2013-03-02 12:50:00,59.9,41.7,29.81,NNE,32,7.0,14.0,51,0.00,FEW,,0.00,269.0,WeatherDisplay:10.37,2013-03-02 11:50:00,
2013-03-02 12:55:00,60.0,41.8,29.81,NNE,27,6.0,13.0,51,0.00,FEW,,0.00,258.0,WeatherDisplay:10.37,2013-03-02 11:55:00,
2013-03-02 13:00:00,60.0,41.8,29.81,NNE,23,9.0,14.0,51,0.00,FEW,,0.00,262.0,WeatherDisplay:10.37,2013-03-02 12:00:00,
2013-03-02 13:05:00,60.0,41.8,29.81,NE,37,8.0,13.0,51,0.00,FEW,,0.00,258.0,WeatherDisplay:10.37,2013-03-02 12:05:00,
2013-03-02 13:10:00,60.1,41.9,29.81,NNE,33,9.0,16.0,51,0.00,FEW,,0.00,246.0,WeatherDisplay:10.37,2013-03-02 12:10:00,
2013-03-02 13:15:00,59.9,41.2,29.81,NNE,27,9.0,16.0,50,0.00,BKN,,0.00,223.0,WeatherDisplay:10.37,2013-03-02 12:15:00,
2013-03-02 13:20:00,59.8,41.1,29.81,NE,34,9.0,16.0,50,0.00,BKN,,0.00,220.0,WeatherDisplay:10.37,2013-03-02 12:20:00,
2013-03-02 13:25:00,59.6,40.9,29.81,NE,38,8.0,15.0,50,0.00,BKN,,0.00,223.0,WeatherDisplay:10.37,2013-03-02 12:25:00,
2013-03-02 13:30:00,59.7,41.5,29.80,NE,36,6.0,14.0,51,0.00,BKN,,0.00,229.0,WeatherDisplay:10.37,2013-03-02 12:30:00,
2013-03-02 13:35:00,59.7,41.6,29.80,NE,35,8.0,13.0,51,0.00,BKN,,0.00,232.0,WeatherDisplay:10.37,2013-03-02 12:35:00,
2013-03-02 13:40:00,59.9,41.7,29.80,NE,44,8.0,13.0,51,0.00,BKN,,0.00,237.0,WeatherDisplay:10.37,2013-03-02 12:40:00,
2013-03-02 13:45:00,60.0,41.3,29.80,NE,47,10.0,15.0,50,0.00,SCT,,0.00,262.0,WeatherDisplay:10.37,2013-03-02 12:45:00,
2013-03-02 13:50:00,60.0,41.8,29.80,NE,48,7.0,14.0,51,0.00,SCT,,0.00,406.0,WeatherDisplay:10.37,2013-03-02 12:50:00,
2013-03-02 13:55:00,60.4,42.1,29.81,NE,38,6.0,13.0,51,0.00,FEW,,0.00,592.0,WeatherDisplay:10.37,2013-03-02 12:55:00,
2013-03-02 14:00:00,60.6,42.4,29.80,NNE,27,8.0,14.0,51,0.00,CLR,,0.00,640.0,WeatherDisplay:10.37,2013-03-02 13:00:00,
2013-03-02 14:05:00,60.7,41.4,29.81,NE,36,6.0,15.0,49,0.00,CLR,,0.00,670.0,WeatherDisplay:10.37,2013-03-02 13:05:00,
2013-03-02 14:10:00,61.0,41.2,29.81,NE,44,7.0,14.0,48,0.00,CLR,,0.00,422.0,WeatherDisplay:10.37,2013-03-02 13:10:00,
2013-03-02 14:15:00,61.0,42.3,29.81,NE,40,9.0,15.0,50,0.00,FEW,,0.00,272.0,WeatherDisplay:10.37,2013-03-02 13:15:00,
2013-03-02 14:20:00,61.2,41.3,29.81,NNE,27,7.0,14.0,48,0.00,FEW,,0.00,299.0,WeatherDisplay:10.37,2013-03-02 13:20:00,
2013-03-02 14:25:00,61.5,41.6,29.81,NNE,28,10.0,15.0,48,0.00,FEW,,0.00,348.0,WeatherDisplay:10.37,2013-03-02 13:25:00,
2013-03-02 14:30:00,61.4,40.4,29.81,NE,35,7.0,15.0,46,0.00,FEW,,0.00,302.0,WeatherDisplay:10.37,2013-03-02 13:30:00,
2013-03-02 14:35:00,61.5,40.5,29.81,NNE,28,10.0,15.0,46,0.00,FEW,,0.00,276.0,WeatherDisplay:10.37,2013-03-02 13:35:00,
2013-03-02 14:40:00,61.5,40.5,29.81,NNE,25,8.0,15.0,46,0.00,FEW,,0.00,278.0,WeatherDisplay:10.37,2013-03-02 13:40:00,
2013-03-02 14:45:00,61.7,40.7,29.81,North,11,7.0,17.0,46,0.00,CLR,,0.00,285.0,WeatherDisplay:10.37,2013-03-02 13:45:00,
2013-03-02 14:50:00,61.6,40.0,29.81,NNE,22,10.0,17.0,45,0.00,CLR,,0.00,378.0,WeatherDisplay:10.37,2013-03-02 13:50:00,
2013-03-02 14:55:00,61.9,40.9,29.81,NNE,30,6.0,14.0,46,0.00,CLR,,0.00,248.0,WeatherDisplay:10.37,2013-03-02 13:55:00,
2013-03-02 15:00:00,62.0,40.4,29.81,NNE,22,8.0,13.0,45,0.00,CLR,,0.00,257.0,WeatherDisplay:10.37,2013-03-02 14:00:00,
2013-03-02 15:05:00,61.9,40.3,29.81,NNE,29,7.0,14.0,45,0.00,CLR,,0.00,243.0,WeatherDisplay:10.37,2013-03-02 14:05:00,
2013-03-02 15:10:00,61.9,40.3,29.81,NNE,18,6.0,14.0,45,0.00,CLR,,0.00,206.0,WeatherDisplay:10.37,2013-03-02 14:10:00,
2013-03-02 15:20:00,61.7,40.7,29.81,North,8,10.0,17.0,46,0.00,CLR,,0.00,206.0,WeatherDisplay:10.37,2013-03-02 14:20:00,
2013-03-02 15:25:00,61.7,40.7,29.81,North,4,8.0,17.0,46,0.00,CLR,,0.00,190.0,WeatherDisplay:10.37,2013-03-02 14:25:00,
2013-03-02 15:30:00,61.6,41.2,29.81,North,3,7.0,17.0,47,0.00,CLR,,0.00,183.0,WeatherDisplay:10.37,2013-03-02 14:30:00,
2013-03-02 15:35:00,61.7,41.2,29.81,North,359,3.0,16.0,47,0.00,CLR,,0.00,172.0,WeatherDisplay:10.37,2013-03-02 14:35:00,
2013-03-02 15:40:00,61.7,41.3,29.81,North,356,3.0,15.0,47,0.00,CLR,,0.00,162.0,WeatherDisplay:10.37,2013-03-02 14:40:00,
2013-03-02 15:45:00,61.7,41.3,29.81,NNE,14,8.0,14.0,47,0.00,CLR,,0.00,163.0,WeatherDisplay:10.37,2013-03-02 14:45:00,
2013-03-02 15:50:00,61.7,41.3,29.82,North,10,5.0,12.0,47,0.00,CLR,,0.00,162.0,WeatherDisplay:10.37,2013-03-02 14:50:00,
2013-03-02 15:55:00,61.5,41.1,29.82,North,2,7.0,15.0,47,0.00,CLR,,0.00,165.0,WeatherDisplay:10.37,2013-03-02 14:55:00,
2013-03-02 16:00:00,61.3,40.9,29.82,NNE,14,7.0,14.0,47,0.00,CLR,,0.00,151.0,WeatherDisplay:10.37,2013-03-02 15:00:00,
2013-03-02 16:05:00,61.2,40.8,29.83,NNE,33,9.0,16.0,47,0.00,CLR,,0.00,128.0,WeatherDisplay:10.37,2013-03-02 15:05:00,
2013-03-02 16:10:00,61.1,40.7,29.83,NNE,26,3.0,13.0,47,0.00,CLR,,0.00,211.0,WeatherDisplay:10.37,2013-03-02 15:10:00,
2013-03-02 16:15:00,61.0,40.6,29.83,NNE,16,8.0,12.0,47,0.00,CLR,,0.00,323.0,WeatherDisplay:10.37,2013-03-02 15:15:00,
2013-03-02 16:20:00,61.1,40.7,29.83,NNE,29,7.0,12.0,47,0.00,CLR,,0.00,287.0,WeatherDisplay:10.37,2013-03-02 15:20:00,
2013-03-02 16:25:00,61.2,40.8,29.83,NNE,25,5.0,12.0,47,0.00,CLR,,0.00,274.0,WeatherDisplay:10.37,2013-03-02 15:25:00,
2013-03-02 16:30:00,61.4,39.9,29.83,NNE,27,8.0,12.0,45,0.00,CLR,,0.00,257.0,WeatherDisplay:10.37,2013-03-02 15:30:00,
2013-03-02 16:35:00,61.3,40.3,29.83,NE,36,7.0,12.0,46,0.00,CLR,,0.00,239.0,WeatherDisplay:10.37,2013-03-02 15:35:00,
2013-03-02 16:40:00,61.4,39.9,29.83,NE,37,8.0,12.0,45,0.00,CLR,,0.00,218.0,WeatherDisplay:10.37,2013-03-02 15:40:00,
2013-03-02 16:45:00,61.4,38.7,29.83,NE,37,9.0,14.0,43,0.00,CLR,,0.00,199.0,WeatherDisplay:10.37,2013-03-02 15:45:00,
2013-03-02 16:50:00,61.4,39.3,29.83,NE,35,6.0,13.0,44,0.00,CLR,,0.00,51.0,WeatherDisplay:10.37,2013-03-02 15:50:00,
2013-03-02 16:55:00,61.1,38.4,29.83,NE,36,10.0,15.0,43,0.00,CLR,,0.00,107.0,WeatherDisplay:10.37,2013-03-02 15:55:00,
2013-03-02 17:00:00,60.9,38.2,29.83,NE,42,7.0,16.0,43,0.00,SCT,,0.00,137.0,WeatherDisplay:10.37,2013-03-02 16:00:00,
2013-03-02 17:05:00,60.8,38.2,29.84,NE,46,8.0,14.0,43,0.00,OVC,,0.00,128.0,WeatherDisplay:10.37,2013-03-02 16:05:00,
2013-03-02 17:10:00,60.8,38.7,29.84,NE,41,8.0,13.0,44,0.00,OVC,,0.00,111.0,WeatherDisplay:10.37,2013-03-02 16:10:00,
2013-03-02 17:15:00,60.7,38.7,29.84,NE,41,8.0,12.0,44,0.00,OVC,,0.00,91.0,WeatherDisplay:10.37,2013-03-02 16:15:00,
2013-03-02 17:20:00,60.8,38.7,29.84,NE,48,6.0,13.0,44,0.00,OVC,,0.00,76.0,WeatherDisplay:10.37,2013-03-02 16:20:00,
2013-03-02 17:25:00,60.7,38.6,29.85,NE,52,5.0,9.0,44,0.00,OVC,,0.00,54.0,WeatherDisplay:10.37,2013-03-02 16:25:00,
2013-03-02 17:30:00,60.5,39.0,29.85,NE,50,8.0,10.0,45,0.00,OVC,,0.00,51.0,WeatherDisplay:10.37,2013-03-02 16:30:00,
2013-03-02 17:35:00,60.3,38.9,29.85,NE,45,8.0,13.0,45,0.00,OVC,,0.00,39.0,WeatherDisplay:10.37,2013-03-02 16:35:00,
2013-03-02 17:40:00,60.1,38.7,29.85,NE,41,7.0,10.0,45,0.00,OVC,,0.00,28.0,WeatherDisplay:10.37,2013-03-02 16:40:00,
2013-03-02 17:45:00,59.9,38.5,29.85,NE,45,8.0,13.0,45,0.00,OVC,,0.00,21.0,WeatherDisplay:10.37,2013-03-02 16:45:00,
2013-03-02 17:50:00,59.6,38.8,29.85,NE,46,8.0,13.0,46,0.00,OVC,,0.00,14.0,WeatherDisplay:10.37,2013-03-02 16:50:00,
2013-03-02 17:55:00,59.3,38.5,29.85,NE,43,6.0,12.0,46,0.00,OVC,,0.00,11.0,WeatherDisplay:10.37,2013-03-02 16:55:00,
2013-03-02 18:00:00,58.9,38.1,29.85,NE,41,7.0,12.0,46,0.00,OVC,,0.00,7.0,WeatherDisplay:10.37,2013-03-02 17:00:00,
2013-03-02 18:05:00,58.6,37.9,29.86,NE,38,8.0,14.0,46,0.00,OVC,,0.00,5.0,WeatherDisplay:10.37,2013-03-02 17:05:00,
2013-03-02 18:10:00,58.4,37.1,29.86,NE,42,7.0,15.0,45,0.00,OVC,,0.00,0.0,WeatherDisplay:10.37,2013-03-02 17:10:00,
2013-03-02 18:15:00,58.2,36.3,29.86,NE,47,10.0,16.0,44,0.00,OVC,,0.00,0.0,WeatherDisplay:10.37,2013-03-02 17:15:00,
2013-03-02 18:20:00,58.0,35.6,29.87,NE,50,8.0,15.0,43,0.00,OVC,,0.00,0.0,WeatherDisplay:10.37,2013-03-02 17:20:00,
2013-03-02 18:25:00,57.8,34.9,29.87,NE,50,6.0,13.0,42,0.00,OVC,,0.00,0.0,WeatherDisplay:10.37,2013-03-02 17:25:00,
2013-03-02 18:30:00,57.5,35.2,29.87,NE,51,5.0,8.0,43,0.00,OVC,,0.00,0.0,WeatherDisplay:10.37,2013-03-02 17:30:00,
2013-03-02 18:35:00,57.3,35.5,29.88,NE,53,1.0,6.0,44,0.00,,,0.00,0.0,WeatherDisplay:10.37,2013-03-02 17:35:00,
2013-03-02 18:40:00,56.6,36.1,29.88,ENE,69,0.0,6.0,46,0.00,,,0.00,0.0,WeatherDisplay:10.37,2013-03-02 17:40:00,
2013-03-02 18:45:00,56.0,36.6,29.88,East,98,1.0,5.0,48,0.00,,,0.00,0.0,WeatherDisplay:10.37,2013-03-02 17:45:00,
2013-03-02 18:55:00,56.1,36.1,29.89,ENE,62,0.0,7.0,47,0.00,,,0.00,0.0,WeatherDisplay:10.37,2013-03-02 17:55:00,
2013-03-02 19:00:00,56.0,35.5,29.89,NE,46,5.0,6.0,46,0.00,,,0.00,0.0,WeatherDisplay:10.37,2013-03-02 18:00:00,
2013-03-02 19:05:00,55.9,35.9,29.89,NE,47,2.0,6.0,47,0.00,,,0.00,0.0,WeatherDisplay:10.37,2013-03-02 18:05:00,
2013-03-02 19:10:00,55.8,35.3,29.89,NE,44,3.0,8.0,46,0.00,,,0.00,0.0,WeatherDisplay:10.37,2013-03-02 18:10:00,
2013-03-02 19:15:00,55.7,34.7,29.89,NE,49,7.0,12.0,45,0.00,,,0.00,0.0,WeatherDisplay:10.37,2013-03-02 18:15:00,
2013-03-02 19:25:00,55.1,34.7,29.90,NE,49,6.0,9.0,46,0.00,,,0.00,0.0,WeatherDisplay:10.37,2013-03-02 18:25:00,
2013-03-02 19:30:00,54.9,34.5,29.90,NE,49,7.0,12.0,46,0.00,,,0.00,0.0,WeatherDisplay:10.37,2013-03-02 18:30:00,
2013-03-02 19:35:00,54.7,34.3,29.90,NE,48,7.0,12.0,46,0.00,,,0.00,0.0,WeatherDisplay:10.37,2013-03-02 18:35:00,
2013-03-02 19:40:00,54.6,34.2,29.90,NE,46,8.0,13.0,46,0.00,,,0.00,0.0,WeatherDisplay:10.37,2013-03-02 18:40:00,
2013-03-02 19:45:00,54.6,33.7,29.91,NE,46,8.0,13.0,45,0.00,,,0.00,0.0,WeatherDisplay:10.37,2013-03-02 18:45:00,
2013-03-02 19:50:00,54.5,33.6,29.91,NE,46,9.0,12.0,45,0.00,,,0.00,0.0,WeatherDisplay:10.37,2013-03-02 18:50:00,
2013-03-02 19:55:00,54.3,33.4,29.91,NE,47,7.0,10.0,45,0.00,,,0.00,0.0,WeatherDisplay:10.37,2013-03-02 18:55:00,
2013-03-02 20:05:00,54.1,33.7,29.92,NE,35,5.0,9.0,46,0.00,,,0.00,0.0,WeatherDisplay:10.37,2013-03-02 19:05:00,
2013-03-02 20:10:00,54.1,33.7,29.92,NE,38,6.0,9.0,46,0.00,,,0.00,0.0,WeatherDisplay:10.37,2013-03-02 19:10:00,
2013-03-02 20:15:00,53.9,33.6,29.92,NE,46,6.0,10.0,46,0.00,,,0.00,0.0,WeatherDisplay:10.37,2013-03-02 19:15:00,
2013-03-02 20:20:00,53.6,33.8,29.92,NE,43,3.0,6.0,47,0.00,,,0.00,0.0,WeatherDisplay:10.37,2013-03-02 19:20:00,
2013-03-02 20:25:00,53.6,33.8,29.92,NE,39,2.0,7.0,47,0.00,,,0.00,0.0,WeatherDisplay:10.37,2013-03-02 19:25:00,
2013-03-02 20:30:00,53.5,33.8,29.93,NNE,32,5.0,9.0,47,0.00,,,0.00,0.0,WeatherDisplay:10.37,2013-03-02 19:30:00,
2013-03-02 20:40:00,53.5,33.7,29.93,NE,44,7.0,12.0,47,0.00,,,0.00,0.0,WeatherDisplay:10.37,2013-03-02 19:40:00,
2013-03-02 20:45:00,53.3,33.6,29.93,NE,49,5.0,9.0,47,0.00,,,0.00,0.0,WeatherDisplay:10.37,2013-03-02 19:45:00,
2013-03-02 20:50:00,53.1,33.9,29.94,NE,48,1.0,6.0,48,0.00,,,0.00,0.0,WeatherDisplay:10.37,2013-03-02 19:50:00,
2013-03-02 20:55:00,52.9,33.7,29.94,NE,47,1.0,5.0,48,0.00,,,0.00,0.0,WeatherDisplay:10.37,2013-03-02 19:55:00,
2013-03-02 21:00:00,52.5,33.9,29.94,NE,48,1.0,3.0,49,0.00,,,0.00,0.0,WeatherDisplay:10.37,2013-03-02 20:00:00,
2013-03-02 21:05:00,52.3,33.7,29.94,NE,49,0.0,1.0,49,0.00,,,0.00,0.0,WeatherDisplay:10.37,2013-03-02 20:05:00,
2013-03-02 21:10:00,52.3,33.7,29.94,NE,50,1.0,4.0,49,0.00,,,0.00,0.0,WeatherDisplay:10.37,2013-03-02 20:10:00,
2013-03-02 21:15:00,52.2,34.1,29.94,NE,52,0.0,3.0,50,0.00,,,0.00,0.0,WeatherDisplay:10.37,2013-03-02 20:15:00,
2013-03-02 21:20:00,51.9,34.3,29.95,NE,52,0.0,0.0,51,0.00,,,0.00,0.0,WeatherDisplay:10.37,2013-03-02 20:20:00,
2013-03-02 21:25:00,51.7,34.2,29.95,NE,52,0.0,2.0,51,0.00,,,0.00,0.0,WeatherDisplay:10.37,2013-03-02 20:25:00,
2013-03-02 21:30:00,51.8,34.7,29.95,NE,52,0.0,0.0,52,0.00,,,0.00,0.0,WeatherDisplay:10.37,2013-03-02 20:30:00,
2013-03-02 21:35:00,51.9,34.8,29.95,NE,52,0.0,0.0,52,0.00,,,0.00,0.0,WeatherDisplay:10.37,2013-03-02 20:35:00,
2013-03-02 21:40:00,52.0,34.4,29.95,NE,52,1.0,4.0,51,0.00,,,0.00,0.0,WeatherDisplay:10.37,2013-03-02 20:40:00,
2013-03-02 21:45:00,52.0,34.5,29.95,NE,44,3.0,5.0,51,0.00,FEW,,0.00,0.0,WeatherDisplay:10.37,2013-03-02 20:45:00,
2013-03-02 21:50:00,52.0,34.9,29.95,NNE,33,0.0,4.0,52,0.00,FEW,,0.00,0.0,WeatherDisplay:10.37,2013-03-02 20:50:00,
2013-03-02 21:55:00,51.7,35.1,29.96,North,7,3.0,5.0,53,0.00,FEW,,0.00,0.0,WeatherDisplay:10.37,2013-03-02 20:55:00,
2013-03-02 22:00:00,51.5,34.9,29.95,North,349,1.0,6.0,53,0.00,FEW,,0.00,0.0,WeatherDisplay:10.37,2013-03-02 21:00:00,
2013-03-02 22:05:00,51.7,35.1,29.95,NNW,347,0.0,4.0,53,0.00,FEW,,0.00,0.0,WeatherDisplay:10.37,2013-03-02 21:05:00,
2013-03-02 22:15:00,51.4,34.8,29.96,North,355,0.0,4.0,53,0.00,FEW,,0.00,0.0,WeatherDisplay:10.37,2013-03-02 21:15:00,
2013-03-02 22:25:00,50.3,35.2,29.96,NNE,16,3.0,5.0,56,0.00,FEW,,0.00,0.0,WeatherDisplay:10.37,2013-03-02 21:25:00,
2013-03-02 22:30:00,50.4,35.2,29.96,NNE,25,3.0,5.0,56,0.00,FEW,,0.00,0.0,WeatherDisplay:10.37,2013-03-02 21:30:00,
2013-03-02 22:35:00,50.4,35.3,29.96,NNE,27,3.0,5.0,56,0.00,FEW,,0.00,0.0,WeatherDisplay:10.37,2013-03-02 21:35:00,
2013-03-02 22:40:00,50.3,35.2,29.96,NNE,30,2.0,5.0,56,0.00,FEW,,0.00,0.0,WeatherDisplay:10.37,2013-03-02 21:40:00,
2013-03-02 22:45:00,50.1,35.4,29.96,NE,43,3.0,6.0,57,0.00,FEW,,0.00,0.0,WeatherDisplay:10.37,2013-03-02 21:45:00,
2013-03-02 22:50:00,49.8,35.2,29.96,NE,48,3.0,6.0,57,0.00,FEW,,0.00,0.0,WeatherDisplay:10.37,2013-03-02 21:50:00,
2013-03-02 22:55:00,49.9,35.3,29.96,NE,45,3.0,8.0,57,0.00,FEW,,0.00,0.0,WeatherDisplay:10.37,2013-03-02 21:55:00,
2013-03-02 23:05:00,49.9,35.7,29.96,NE,36,5.0,8.0,58,0.00,FEW,,0.00,0.0,WeatherDisplay:10.37,2013-03-02 22:05:00,
2013-03-02 23:10:00,49.9,35.3,29.96,NNE,29,3.0,7.0,57,0.00,FEW,,0.00,0.0,WeatherDisplay:10.37,2013-03-02 22:10:00,
2013-03-02 23:15:00,49.8,35.6,29.96,NNE,32,5.0,7.0,58,0.00,FEW,,0.00,0.0,WeatherDisplay:10.37,2013-03-02 22:15:00,
2013-03-02 23:20:00,49.8,35.6,29.96,NNE,27,3.0,6.0,58,0.00,FEW,,0.00,0.0,WeatherDisplay:10.37,2013-03-02 22:20:00,
2013-03-02 23:30:00,49.9,35.3,29.96,NNE,24,7.0,10.0,57,0.00,FEW,,0.00,0.0,WeatherDisplay:10.37,2013-03-02 22:30:00,
2013-03-02 23:35:00,49.9,35.3,29.97,NNE,27,5.0,9.0,57,0.00,FEW,,0.00,0.0,WeatherDisplay:10.37,2013-03-02 22:35:00,
2013-03-02 23:40:00,49.9,35.7,29.97,NNE,28,3.0,10.0,58,0.00,FEW,,0.00,0.0,WeatherDisplay:10.37,2013-03-02 22:40:00,
2013-03-02 23:45:00,50.0,35.4,29.97,NNE,29,3.0,7.0,57,0.00,FEW,,0.00,0.0,WeatherDisplay:10.37,2013-03-02 22:45:00,
2013-03-02 23:50:00,50.0,35.3,29.97,NE,41,5.0,7.0,57,0.00,FEW,,0.00,0.0,WeatherDisplay:10.37,2013-03-02 22:50:00,
2013-03-02 23:55:00,49.9,35.3,29.97,NE,40,5.0,7.0,57,0.00,FEW,,0.00,0.0,WeatherDisplay:10.37,2013-03-02 22:55:00,